sensor_id;sensor_type;location;lat;lon;timestamp;P1;durP1;ratioP1;P2;durP2;ratioP2
40629;SDS011;26329;40.388;-3.710;2024-03-23T01:01:48;99.43;;;29.30;;
40629;SDS011;26329;40.388;-3.710;2024-03-23T01:11:50;97.23;;;29.10;;
40629;SDS011;26329;40.388;-3.710;2024-03-23T01:21:51;95.93;;;28.63;;
40629;SDS011;26329;40.388;-3.710;2024-03-23T01:31:52;96.67;;;29.07;;
40629;SDS011;26329;40.388;-3.710;2024-03-23T01:41:54;96.07;;;28.73;;
40629;SDS011;26329;40.388;-3.710;2024-03-23T01:51:55;96.97;;;29.03;;
40629;SDS011;26329;40.388;-3.710;2024-03-23T02:01:57;96.40;;;28.90;;
40629;SDS011;26329;40.388;-3.710;2024-03-23T02:12:01;97.27;;;29.17;;
40629;SDS011;26329;40.388;-3.710;2024-03-23T02:22:04;95.17;;;28.77;;
40629;SDS011;26329;40.388;-3.710;2024-03-23T02:32:07;97.00;;;29.20;;
40629;SDS011;26329;40.388;-3.710;2024-03-23T02:42:09;96.17;;;29.00;;
40629;SDS011;26329;40.388;-3.710;2024-03-23T02:52:11;94.40;;;28.60;;
40629;SDS011;26329;40.388;-3.710;2024-03-23T03:02:13;94.63;;;28.70;;
40629;SDS011;26329;40.388;-3.710;2024-03-23T03:12:14;93.03;;;28.33;;
40629;SDS011;26329;40.388;-3.710;2024-03-23T03:22:16;94.53;;;28.73;;
40629;SDS011;26329;40.388;-3.710;2024-03-23T03:32:17;93.03;;;28.33;;
40629;SDS011;26329;40.388;-3.710;2024-03-23T03:42:19;93.50;;;28.67;;
40629;SDS011;26329;40.388;-3.710;2024-03-23T03:52:20;93.33;;;28.63;;
40629;SDS011;26329;40.388;-3.710;2024-03-23T04:02:22;93.03;;;28.60;;
40629;SDS011;26329;40.388;-3.710;2024-03-23T04:12:23;92.30;;;28.40;;
40629;SDS011;26329;40.388;-3.710;2024-03-23T04:22:25;91.63;;;28.40;;
40629;SDS011;26329;40.388;-3.710;2024-03-23T04:32:27;90.83;;;28.20;;
40629;SDS011;26329;40.388;-3.710;2024-03-23T04:42:28;89.73;;;27.93;;
40629;SDS011;26329;40.388;-3.710;2024-03-23T04:52:30;88.03;;;27.33;;
40629;SDS011;26329;40.388;-3.710;2024-03-23T05:02:32;89.77;;;28.03;;
40629;SDS011;26329;40.388;-3.710;2024-03-23T05:12:35;89.13;;;28.23;;
40629;SDS011;26329;40.388;-3.710;2024-03-23T05:22:36;88.37;;;27.70;;
40629;SDS011;26329;40.388;-3.710;2024-03-23T05:32:38;86.43;;;27.20;;
40629;SDS011;26329;40.388;-3.710;2024-03-23T05:42:40;86.40;;;27.53;;
40629;SDS011;26329;40.388;-3.710;2024-03-23T05:52:42;86.93;;;27.77;;
40629;SDS011;26329;40.388;-3.710;2024-03-23T06:02:44;86.37;;;27.57;;
40629;SDS011;26329;40.388;-3.710;2024-03-23T06:12:45;86.30;;;27.63;;
40629;SDS011;26329;40.388;-3.710;2024-03-23T06:22:47;85.53;;;27.53;;
40629;SDS011;26329;40.388;-3.710;2024-03-23T06:32:48;86.23;;;27.70;;
40629;SDS011;26329;40.388;-3.710;2024-03-23T06:42:50;85.60;;;27.73;;
40629;SDS011;26329;40.388;-3.710;2024-03-23T06:52:51;85.77;;;27.63;;
40629;SDS011;26329;40.388;-3.710;2024-03-23T07:02:53;87.73;;;27.97;;
40629;SDS011;26329;40.388;-3.710;2024-03-23T07:12:54;88.43;;;28.00;;
40629;SDS011;26329;40.388;-3.710;2024-03-23T07:22:56;88.23;;;27.67;;
40629;SDS011;26329;40.388;-3.710;2024-03-23T07:32:57;88.37;;;27.67;;
40629;SDS011;26329;40.388;-3.710;2024-03-23T07:42:59;91.20;;;28.47;;
40629;SDS011;26329;40.388;-3.710;2024-03-23T07:53:00;92.43;;;28.30;;
40629;SDS011;26329;40.388;-3.710;2024-03-23T08:03:02;92.77;;;28.23;;
40629;SDS011;26329;40.388;-3.710;2024-03-23T08:13:05;95.83;;;29.20;;
40629;SDS011;26329;40.388;-3.710;2024-03-23T08:23:07;93.50;;;28.23;;
40629;SDS011;26329;40.388;-3.710;2024-03-23T08:33:08;94.47;;;28.63;;
40629;SDS011;26329;40.388;-3.710;2024-03-23T08:43:10;95.90;;;28.67;;
40629;SDS011;26329;40.388;-3.710;2024-03-23T08:53:12;97.20;;;29.07;;
40629;SDS011;26329;40.388;-3.710;2024-03-23T09:03:14;98.47;;;29.17;;
40629;SDS011;26329;40.388;-3.710;2024-03-23T09:13:16;98.27;;;28.93;;
40629;SDS011;26329;40.388;-3.710;2024-03-23T09:23:17;97.63;;;28.67;;
40629;SDS011;26329;40.388;-3.710;2024-03-23T09:33:19;102.27;;;29.83;;
40629;SDS011;26329;40.388;-3.710;2024-03-23T09:43:22;101.83;;;29.37;;
40629;SDS011;26329;40.388;-3.710;2024-03-23T09:53:23;101.87;;;29.40;;
40629;SDS011;26329;40.388;-3.710;2024-03-23T10:03:25;102.00;;;29.50;;
40629;SDS011;26329;40.388;-3.710;2024-03-23T10:13:27;102.63;;;29.37;;
40629;SDS011;26329;40.388;-3.710;2024-03-23T10:23:41;104.67;;;29.63;;
40629;SDS011;26329;40.388;-3.710;2024-03-23T10:33:46;104.77;;;29.67;;
40629;SDS011;26329;40.388;-3.710;2024-03-23T10:43:48;105.60;;;29.60;;
40629;SDS011;26329;40.388;-3.710;2024-03-23T10:53:50;109.90;;;30.37;;
40629;SDS011;26329;40.388;-3.710;2024-03-23T11:03:54;106.23;;;29.30;;
40629;SDS011;26329;40.388;-3.710;2024-03-23T11:13:56;108.27;;;29.87;;
40629;SDS011;26329;40.388;-3.710;2024-03-23T11:24:13;110.43;;;30.10;;
40629;SDS011;26329;40.388;-3.710;2024-03-23T11:34:15;110.83;;;29.83;;
40629;SDS011;26329;40.388;-3.710;2024-03-23T11:44:17;113.63;;;30.43;;
40629;SDS011;26329;40.388;-3.710;2024-03-23T11:54:21;115.40;;;30.50;;
40629;SDS011;26329;40.388;-3.710;2024-03-23T12:04:29;114.73;;;30.10;;
40629;SDS011;26329;40.388;-3.710;2024-03-23T12:14:32;119.93;;;31.07;;
40629;SDS011;26329;40.388;-3.710;2024-03-23T12:24:34;123.43;;;31.53;;
40629;SDS011;26329;40.388;-3.710;2024-03-23T12:34:36;117.33;;;30.10;;
40629;SDS011;26329;40.388;-3.710;2024-03-23T12:44:38;122.37;;;30.90;;
40629;SDS011;26329;40.388;-3.710;2024-03-23T12:54:39;119.43;;;30.27;;
40629;SDS011;26329;40.388;-3.710;2024-03-23T13:04:41;119.03;;;29.90;;
40629;SDS011;26329;40.388;-3.710;2024-03-23T13:14:42;119.57;;;29.80;;
40629;SDS011;26329;40.388;-3.710;2024-03-23T13:24:44;122.10;;;30.37;;
40629;SDS011;26329;40.388;-3.710;2024-03-23T13:34:45;122.83;;;30.20;;
40629;SDS011;26329;40.388;-3.710;2024-03-23T13:44:50;123.20;;;31.02;;
40629;SDS011;26329;40.388;-3.710;2024-03-23T13:54:52;124.07;;;30.43;;
40629;SDS011;26329;40.388;-3.710;2024-03-23T14:04:53;125.22;;;30.80;;
40629;SDS011;26329;40.388;-3.710;2024-03-23T14:14:55;122.78;;;30.33;;
40629;SDS011;26329;40.388;-3.710;2024-03-23T14:24:57;124.38;;;30.63;;
40629;SDS011;26329;40.388;-3.710;2024-03-23T14:35:00;121.10;;;29.98;;
40629;SDS011;26329;40.388;-3.710;2024-03-23T14:45:01;120.90;;;30.20;;
40629;SDS011;26329;40.388;-3.710;2024-03-23T14:55:03;122.55;;;30.48;;
40629;SDS011;26329;40.388;-3.710;2024-03-23T15:15:09;116.40;;;30.02;;
40629;SDS011;26329;40.388;-3.710;2024-03-23T15:25:11;125.13;;;30.73;;
40629;SDS011;26329;40.388;-3.710;2024-03-23T15:35:13;121.05;;;30.02;;
40629;SDS011;26329;40.388;-3.710;2024-03-23T15:45:14;123.20;;;30.75;;
40629;SDS011;26329;40.388;-3.710;2024-03-23T15:55:17;119.53;;;29.52;;
40629;SDS011;26329;40.388;-3.710;2024-03-23T16:05:18;122.40;;;30.17;;
40629;SDS011;26329;40.388;-3.710;2024-03-23T16:15:21;118.15;;;29.50;;
40629;SDS011;26329;40.388;-3.710;2024-03-23T16:35:24;115.30;;;29.85;;
40629;SDS011;26329;40.388;-3.710;2024-03-23T16:55:27;117.15;;;29.95;;
40629;SDS011;26329;40.388;-3.710;2024-03-23T17:05:29;126.10;;;31.15;;
40629;SDS011;26329;40.388;-3.710;2024-03-23T17:15:30;124.88;;;30.63;;
40629;SDS011;26329;40.388;-3.710;2024-03-23T17:25:33;122.20;;;30.30;;
40629;SDS011;26329;40.388;-3.710;2024-03-23T17:35:35;123.78;;;30.50;;
40629;SDS011;26329;40.388;-3.710;2024-03-23T17:45:36;123.75;;;30.48;;
40629;SDS011;26329;40.388;-3.710;2024-03-23T17:55:38;122.88;;;30.45;;
40629;SDS011;26329;40.388;-3.710;2024-03-23T18:05:41;125.13;;;31.55;;
40629;SDS011;26329;40.388;-3.710;2024-03-23T18:15:44;127.83;;;31.80;;
40629;SDS011;26329;40.388;-3.710;2024-03-23T18:25:51;120.40;;;29.80;;
40629;SDS011;26329;40.388;-3.710;2024-03-23T18:35:54;127.20;;;31.70;;
40629;SDS011;26329;40.388;-3.710;2024-03-23T18:45:56;126.43;;;31.73;;
40629;SDS011;26329;40.388;-3.710;2024-03-23T18:55:58;127.25;;;32.10;;
40629;SDS011;26329;40.388;-3.710;2024-03-23T19:06:01;119.83;;;30.43;;
40629;SDS011;26329;40.388;-3.710;2024-03-23T19:16:03;123.57;;;31.57;;
40629;SDS011;26329;40.388;-3.710;2024-03-23T19:26:05;119.70;;;31.05;;
40629;SDS011;26329;40.388;-3.710;2024-03-23T19:36:07;119.20;;;30.87;;
40629;SDS011;26329;40.388;-3.710;2024-03-23T19:46:09;117.80;;;30.67;;
40629;SDS011;26329;40.388;-3.710;2024-03-23T19:56:12;117.30;;;30.33;;
40629;SDS011;26329;40.388;-3.710;2024-03-23T20:06:15;116.77;;;30.83;;
40629;SDS011;26329;40.388;-3.710;2024-03-23T20:16:16;116.05;;;30.38;;
40629;SDS011;26329;40.388;-3.710;2024-03-23T20:26:19;116.93;;;30.67;;
40629;SDS011;26329;40.388;-3.710;2024-03-23T20:36:24;115.93;;;30.43;;
40629;SDS011;26329;40.388;-3.710;2024-03-23T20:46:26;115.03;;;30.30;;
40629;SDS011;26329;40.388;-3.710;2024-03-23T20:56:28;117.87;;;31.27;;
40629;SDS011;26329;40.388;-3.710;2024-03-23T21:06:30;113.90;;;30.20;;
40629;SDS011;26329;40.388;-3.710;2024-03-23T21:16:33;114.50;;;30.70;;
40629;SDS011;26329;40.388;-3.710;2024-03-23T21:26:34;111.80;;;30.30;;
40629;SDS011;26329;40.388;-3.710;2024-03-23T21:36:37;106.55;;;30.13;;
40629;SDS011;26329;40.388;-3.710;2024-03-23T21:46:40;106.20;;;29.40;;
40629;SDS011;26329;40.388;-3.710;2024-03-23T21:56:41;103.90;;;29.13;;
40629;SDS011;26329;40.388;-3.710;2024-03-23T22:06:44;103.97;;;29.77;;
40629;SDS011;26329;40.388;-3.710;2024-03-23T22:16:46;101.83;;;29.37;;
40629;SDS011;26329;40.388;-3.710;2024-03-23T22:26:49;101.60;;;29.55;;
40629;SDS011;26329;40.388;-3.710;2024-03-23T22:36:51;99.90;;;29.07;;
40629;SDS011;26329;40.388;-3.710;2024-03-23T22:56:55;88.03;;;27.53;;
40629;SDS011;26329;40.388;-3.710;2024-03-23T23:06:58;97.85;;;29.00;;
40629;SDS011;26329;40.388;-3.710;2024-03-23T23:16:59;99.43;;;29.27;;
40629;SDS011;26329;40.388;-3.710;2024-03-23T23:27:01;99.63;;;29.17;;
40629;SDS011;26329;40.388;-3.710;2024-03-23T23:37:02;99.40;;;29.33;;
40629;SDS011;26329;40.388;-3.710;2024-03-23T23:47:04;97.87;;;28.90;;
40629;SDS011;26329;40.388;-3.710;2024-03-23T23:57:06;100.83;;;29.60;;
